sensor_id;sensor_type;location;lat;lon;timestamp;temperature;humidity
32027;DHT22;18543;50.848;4.596;2023-02-15T00:01:51;21.50;52.10
32027;DHT22;18543;50.848;4.596;2023-02-15T00:04:21;21.50;51.90
32027;DHT22;18543;50.848;4.596;2023-02-15T00:06:49;21.50;51.90
32027;DHT22;18543;50.848;4.596;2023-02-15T00:09:16;21.50;51.90
32027;DHT22;18543;50.848;4.596;2023-02-15T00:11:43;21.50;51.90
32027;DHT22;18543;50.848;4.596;2023-02-15T00:14:19;21.50;51.80
32027;DHT22;18543;50.848;4.596;2023-02-15T00:16:48;21.50;51.80
32027;DHT22;18543;50.848;4.596;2023-02-15T00:19:17;21.50;51.80
32027;DHT22;18543;50.848;4.596;2023-02-15T00:21:46;21.40;51.70
32027;DHT22;18543;50.848;4.596;2023-02-15T00:24:14;21.40;52.30
32027;DHT22;18543;50.848;4.596;2023-02-15T00:26:42;21.40;51.70
32027;DHT22;18543;50.848;4.596;2023-02-15T00:29:11;21.40;51.70
32027;DHT22;18543;50.848;4.596;2023-02-15T00:31:37;21.40;51.60
32027;DHT22;18543;50.848;4.596;2023-02-15T00:34:16;21.40;51.60
32027;DHT22;18543;50.848;4.596;2023-02-15T00:36:44;21.40;51.70
32027;DHT22;18543;50.848;4.596;2023-02-15T00:39:12;21.40;51.70
32027;DHT22;18543;50.848;4.596;2023-02-15T00:41:39;21.40;51.60
32027;DHT22;18543;50.848;4.596;2023-02-15T00:44:06;21.40;51.50
32027;DHT22;18543;50.848;4.596;2023-02-15T00:46:33;21.40;51.60
32027;DHT22;18543;50.848;4.596;2023-02-15T00:49:01;21.40;51.50
32027;DHT22;18543;50.848;4.596;2023-02-15T00:51:28;21.40;51.60
32027;DHT22;18543;50.848;4.596;2023-02-15T00:53:57;21.30;51.50
32027;DHT22;18543;50.848;4.596;2023-02-15T00:56:24;21.40;51.60
32027;DHT22;18543;50.848;4.596;2023-02-15T00:58:53;21.30;51.50
32027;DHT22;18543;50.848;4.596;2023-02-15T01:01:21;21.40;51.50
32027;DHT22;18543;50.848;4.596;2023-02-15T01:03:48;21.30;51.40
32027;DHT22;18543;50.848;4.596;2023-02-15T01:06:16;21.30;51.40
32027;DHT22;18543;50.848;4.596;2023-02-15T01:08:43;21.30;51.30
32027;DHT22;18543;50.848;4.596;2023-02-15T01:11:17;21.30;51.30
32027;DHT22;18543;50.848;4.596;2023-02-15T01:13:55;21.30;51.20
32027;DHT22;18543;50.848;4.596;2023-02-15T01:16:24;21.30;51.30
32027;DHT22;18543;50.848;4.596;2023-02-15T01:18:51;21.30;51.30
32027;DHT22;18543;50.848;4.596;2023-02-15T01:21:21;21.30;51.30
32027;DHT22;18543;50.848;4.596;2023-02-15T01:23:48;21.30;51.30
32027;DHT22;18543;50.848;4.596;2023-02-15T01:26:15;21.30;51.30
32027;DHT22;18543;50.848;4.596;2023-02-15T01:28:42;21.30;51.20
32027;DHT22;18543;50.848;4.596;2023-02-15T01:31:11;21.30;51.30
32027;DHT22;18543;50.848;4.596;2023-02-15T01:33:39;21.30;51.40
32027;DHT22;18543;50.848;4.596;2023-02-15T01:36:06;21.30;51.30
32027;DHT22;18543;50.848;4.596;2023-02-15T01:38:34;21.30;51.40
32027;DHT22;18543;50.848;4.596;2023-02-15T01:41:04;21.30;51.30
32027;DHT22;18543;50.848;4.596;2023-02-15T01:46:38;21.30;51.10
32027;DHT22;18543;50.848;4.596;2023-02-15T01:49:16;21.30;51.20
32027;DHT22;18543;50.848;4.596;2023-02-15T01:51:46;21.30;51.20
32027;DHT22;18543;50.848;4.596;2023-02-15T01:54:31;21.30;51.10
32027;DHT22;18543;50.848;4.596;2023-02-15T01:57:05;21.40;51.20
32027;DHT22;18543;50.848;4.596;2023-02-15T01:59:35;21.40;51.10
32027;DHT22;18543;50.848;4.596;2023-02-15T02:02:06;21.40;51.10
32027;DHT22;18543;50.848;4.596;2023-02-15T02:05:01;21.40;51.00
32027;DHT22;18543;50.848;4.596;2023-02-15T02:07:36;21.40;51.00
32027;DHT22;18543;50.848;4.596;2023-02-15T02:10:06;21.40;51.10
32027;DHT22;18543;50.848;4.596;2023-02-15T02:12:34;21.40;51.00
32027;DHT22;18543;50.848;4.596;2023-02-15T02:15:05;21.40;51.10
32027;DHT22;18543;50.848;4.596;2023-02-15T02:39:33;21.50;51.00
32027;DHT22;18543;50.848;4.596;2023-02-15T02:42:09;21.50;50.80
32027;DHT22;18543;50.848;4.596;2023-02-15T02:44:51;21.50;50.90
32027;DHT22;18543;50.848;4.596;2023-02-15T02:47:26;21.50;50.70
32027;DHT22;18543;50.848;4.596;2023-02-15T02:50:03;21.50;50.70
32027;DHT22;18543;50.848;4.596;2023-02-15T02:52:43;21.50;50.80
32027;DHT22;18543;50.848;4.596;2023-02-15T02:55:15;21.50;50.70
32027;DHT22;18543;50.848;4.596;2023-02-15T02:58:10;21.50;50.80
32027;DHT22;18543;50.848;4.596;2023-02-15T03:00:43;21.50;50.70
32027;DHT22;18543;50.848;4.596;2023-02-15T03:03:36;21.50;50.70
32027;DHT22;18543;50.848;4.596;2023-02-15T03:06:22;21.50;51.20
32027;DHT22;18543;50.848;4.596;2023-02-15T03:09:14;21.60;50.80
32027;DHT22;18543;50.848;4.596;2023-02-15T03:11:48;21.60;50.80
32027;DHT22;18543;50.848;4.596;2023-02-15T03:14:17;21.50;50.70
32027;DHT22;18543;50.848;4.596;2023-02-15T03:16:46;21.50;50.60
32027;DHT22;18543;50.848;4.596;2023-02-15T03:19:35;21.60;50.60
32027;DHT22;18543;50.848;4.596;2023-02-15T03:22:13;21.60;50.50
32027;DHT22;18543;50.848;4.596;2023-02-15T03:25:30;21.60;51.00
32027;DHT22;18543;50.848;4.596;2023-02-15T03:27:43;21.60;50.50
32027;DHT22;18543;50.848;4.596;2023-02-15T03:30:13;21.60;50.40
32027;DHT22;18543;50.848;4.596;2023-02-15T03:32:41;21.60;50.50
32027;DHT22;18543;50.848;4.596;2023-02-15T03:35:10;21.60;50.50
32027;DHT22;18543;50.848;4.596;2023-02-15T03:40:32;21.50;50.40
32027;DHT22;18543;50.848;4.596;2023-02-15T03:45:57;21.60;50.50
32027;DHT22;18543;50.848;4.596;2023-02-15T03:48:32;21.60;50.70
32027;DHT22;18543;50.848;4.596;2023-02-15T03:51:09;21.60;50.40
32027;DHT22;18543;50.848;4.596;2023-02-15T03:53:59;21.60;50.50
32027;DHT22;18543;50.848;4.596;2023-02-15T03:56:26;21.70;50.40
32027;DHT22;18543;50.848;4.596;2023-02-15T03:58:53;21.60;50.30
32027;DHT22;18543;50.848;4.596;2023-02-15T04:04:37;21.60;50.30
32027;DHT22;18543;50.848;4.596;2023-02-15T04:07:07;21.60;50.50
32027;DHT22;18543;50.848;4.596;2023-02-15T04:09:34;21.60;50.20
32027;DHT22;18543;50.848;4.596;2023-02-15T04:12:20;21.60;50.40
32027;DHT22;18543;50.848;4.596;2023-02-15T04:14:47;21.60;50.40
32027;DHT22;18543;50.848;4.596;2023-02-15T04:17:32;21.60;50.50
32027;DHT22;18543;50.848;4.596;2023-02-15T04:19:59;21.70;50.20
32027;DHT22;18543;50.848;4.596;2023-02-15T04:22:44;21.70;50.20
32027;DHT22;18543;50.848;4.596;2023-02-15T04:25:30;21.70;50.10
32027;DHT22;18543;50.848;4.596;2023-02-15T04:27:57;21.70;50.20
32027;DHT22;18543;50.848;4.596;2023-02-15T04:30:26;21.70;50.20
32027;DHT22;18543;50.848;4.596;2023-02-15T04:32:54;21.70;50.20
32027;DHT22;18543;50.848;4.596;2023-02-15T04:35:21;21.70;50.10
32027;DHT22;18543;50.848;4.596;2023-02-15T04:37:49;21.70;50.10
32027;DHT22;18543;50.848;4.596;2023-02-15T04:40:17;21.70;50.20
32027;DHT22;18543;50.848;4.596;2023-02-15T04:42:47;21.70;50.10
32027;DHT22;18543;50.848;4.596;2023-02-15T04:45:15;21.70;50.20
32027;DHT22;18543;50.848;4.596;2023-02-15T04:47:43;21.70;50.10
32027;DHT22;18543;50.848;4.596;2023-02-15T04:50:10;21.70;50.10
32027;DHT22;18543;50.848;4.596;2023-02-15T04:52:37;21.70;50.30
32027;DHT22;18543;50.848;4.596;2023-02-15T04:55:04;21.70;50.10
32027;DHT22;18543;50.848;4.596;2023-02-15T04:57:31;21.70;50.00
32027;DHT22;18543;50.848;4.596;2023-02-15T04:59:58;21.70;50.10
32027;DHT22;18543;50.848;4.596;2023-02-15T05:02:25;21.70;50.10
32027;DHT22;18543;50.848;4.596;2023-02-15T05:04:52;21.70;50.10
32027;DHT22;18543;50.848;4.596;2023-02-15T05:07:19;21.70;50.00
32027;DHT22;18543;50.848;4.596;2023-02-15T05:09:47;21.80;50.10
32027;DHT22;18543;50.848;4.596;2023-02-15T05:12:14;21.70;50.00
32027;DHT22;18543;50.848;4.596;2023-02-15T05:14:40;21.70;49.90
32027;DHT22;18543;50.848;4.596;2023-02-15T05:17:09;21.70;49.90
32027;DHT22;18543;50.848;4.596;2023-02-15T05:19:36;21.70;50.00
32027;DHT22;18543;50.848;4.596;2023-02-15T05:22:03;21.70;49.90
32027;DHT22;18543;50.848;4.596;2023-02-15T05:24:30;21.70;50.00
32027;DHT22;18543;50.848;4.596;2023-02-15T05:27:15;21.80;50.00
32027;DHT22;18543;50.848;4.596;2023-02-15T05:30:01;21.80;50.00
32027;DHT22;18543;50.848;4.596;2023-02-15T05:32:28;21.80;50.20
32027;DHT22;18543;50.848;4.596;2023-02-15T05:34:55;21.80;50.00
32027;DHT22;18543;50.848;4.596;2023-02-15T05:37:22;21.80;50.00
32027;DHT22;18543;50.848;4.596;2023-02-15T05:39:48;21.70;50.10
32027;DHT22;18543;50.848;4.596;2023-02-15T05:42:15;21.70;50.10
32027;DHT22;18543;50.848;4.596;2023-02-15T05:44:44;21.80;50.00
32027;DHT22;18543;50.848;4.596;2023-02-15T05:47:11;21.80;50.10
32027;DHT22;18543;50.848;4.596;2023-02-15T05:49:40;21.80;50.10
32027;DHT22;18543;50.848;4.596;2023-02-15T05:52:07;21.80;50.10
32027;DHT22;18543;50.848;4.596;2023-02-15T05:54:37;21.80;50.30
32027;DHT22;18543;50.848;4.596;2023-02-15T05:57:06;21.80;50.60
32027;DHT22;18543;50.848;4.596;2023-02-15T05:59:41;21.80;50.60
32027;DHT22;18543;50.848;4.596;2023-02-15T06:02:07;21.80;50.50
32027;DHT22;18543;50.848;4.596;2023-02-15T06:04:34;21.80;50.50
32027;DHT22;18543;50.848;4.596;2023-02-15T06:07:01;21.80;50.50
32027;DHT22;18543;50.848;4.596;2023-02-15T06:09:28;21.80;50.60
32027;DHT22;18543;50.848;4.596;2023-02-15T06:11:55;21.80;50.30
32027;DHT22;18543;50.848;4.596;2023-02-15T06:14:24;21.80;50.40
32027;DHT22;18543;50.848;4.596;2023-02-15T06:16:50;21.60;45.00
32027;DHT22;18543;50.848;4.596;2023-02-15T06:19:17;21.40;43.60
32027;DHT22;18543;50.848;4.596;2023-02-15T06:21:45;21.30;45.00
32027;DHT22;18543;50.848;4.596;2023-02-15T06:24:12;21.30;45.00
32027;DHT22;18543;50.848;4.596;2023-02-15T06:26:41;21.30;45.10
32027;DHT22;18543;50.848;4.596;2023-02-15T06:29:08;21.30;44.40
32027;DHT22;18543;50.848;4.596;2023-02-15T06:31:35;21.30;43.90
32027;DHT22;18543;50.848;4.596;2023-02-15T06:34:02;21.20;43.70
32027;DHT22;18543;50.848;4.596;2023-02-15T06:36:32;21.20;43.80
